Beaver Bottom, Kentucky
Current Conditions -  °F | °C
As of 4:35 PM on Wednesday 26 Nov 2014 (Local Time) from KPBX Reporting Station
Broken Clouds Broken Clouds  
Wind Chill:   Ceiling: 4900
Heat Index:   Visibility: 10mi
Dew Point: -1°   Wind: 6mph
Humidity: 58%   Direction: 290°WNW
Pressure: 29.98"   Gusts: NA
Location:  37.3089°N, 82.3418°W
Report Text: KPBX 262135Z AUTO 29005KT 10SM BKN049 07/M01 A2998 RMK AO2 T00721006
Loading
Personal Weather Stations






























Interactive Weather Map New forecast layout! Learn more

10-Day Weather Forecast

Advertisements
Track Severe Weather on mobile